sensor_id;sensor_type;location;lat;lon;timestamp;P1;durP1;ratioP1;P2;durP2;ratioP2
65202;SDS011;51788;45.124;38.966;2022-11-14T00:02:18;8.65;;;6.25;;
65202;SDS011;51788;45.124;38.966;2022-11-14T00:05:02;9.93;;;6.72;;
65202;SDS011;51788;45.124;38.966;2022-11-14T00:07:47;6.82;;;6.22;;
65202;SDS011;51788;45.124;38.966;2022-11-14T00:10:32;7.25;;;5.47;;
65202;SDS011;51788;45.124;38.966;2022-11-14T00:13:16;6.93;;;6.00;;
65202;SDS011;51788;45.124;38.966;2022-11-14T00:16:02;7.70;;;6.20;;
65202;SDS011;51788;45.124;38.966;2022-11-14T00:18:46;6.40;;;5.80;;
65202;SDS011;51788;45.124;38.966;2022-11-14T00:21:31;8.88;;;5.80;;
65202;SDS011;51788;45.124;38.966;2022-11-14T00:24:15;6.93;;;6.03;;
65202;SDS011;51788;45.124;38.966;2022-11-14T00:27:00;10.88;;;5.82;;
65202;SDS011;51788;45.124;38.966;2022-11-14T00:29:44;7.80;;;5.95;;
65202;SDS011;51788;45.124;38.966;2022-11-14T00:32:29;9.90;;;5.80;;
65202;SDS011;51788;45.124;38.966;2022-11-14T00:35:14;7.05;;;6.35;;
65202;SDS011;51788;45.124;38.966;2022-11-14T00:37:58;6.03;;;5.53;;
65202;SDS011;51788;45.124;38.966;2022-11-14T00:40:43;5.75;;;5.22;;
65202;SDS011;51788;45.124;38.966;2022-11-14T00:43:27;7.78;;;5.90;;
65202;SDS011;51788;45.124;38.966;2022-11-14T00:46:12;13.80;;;6.80;;
65202;SDS011;51788;45.124;38.966;2022-11-14T00:48:56;7.97;;;5.93;;
65202;SDS011;51788;45.124;38.966;2022-11-14T00:51:41;6.72;;;6.03;;
65202;SDS011;51788;45.124;38.966;2022-11-14T00:54:25;7.18;;;5.68;;
65202;SDS011;51788;45.124;38.966;2022-11-14T00:57:09;6.90;;;6.18;;
65202;SDS011;51788;45.124;38.966;2022-11-14T00:59:54;7.63;;;4.95;;
65202;SDS011;51788;45.124;38.966;2022-11-14T01:02:38;8.80;;;5.53;;
65202;SDS011;51788;45.124;38.966;2022-11-14T01:05:23;7.20;;;5.88;;
65202;SDS011;51788;45.124;38.966;2022-11-14T01:08:08;6.22;;;5.63;;
65202;SDS011;51788;45.124;38.966;2022-11-14T01:10:53;11.35;;;5.57;;
65202;SDS011;51788;45.124;38.966;2022-11-14T01:13:38;6.43;;;5.47;;
65202;SDS011;51788;45.124;38.966;2022-11-14T01:16:22;6.75;;;6.25;;
65202;SDS011;51788;45.124;38.966;2022-11-14T01:19:07;8.00;;;6.03;;
65202;SDS011;51788;45.124;38.966;2022-11-14T01:21:51;7.40;;;6.03;;
65202;SDS011;51788;45.124;38.966;2022-11-14T01:24:36;5.60;;;5.10;;
65202;SDS011;51788;45.124;38.966;2022-11-14T01:27:20;5.57;;;5.03;;
65202;SDS011;51788;45.124;38.966;2022-11-14T01:30:05;5.78;;;5.28;;
65202;SDS011;51788;45.124;38.966;2022-11-14T01:32:50;7.47;;;6.05;;
65202;SDS011;51788;45.124;38.966;2022-11-14T01:35:35;10.10;;;5.80;;
65202;SDS011;51788;45.124;38.966;2022-11-14T01:38:20;7.38;;;5.35;;
65202;SDS011;51788;45.124;38.966;2022-11-14T01:41:05;5.65;;;5.10;;
65202;SDS011;51788;45.124;38.966;2022-11-14T01:43:49;6.50;;;4.80;;
65202;SDS011;51788;45.124;38.966;2022-11-14T01:46:35;6.63;;;5.93;;
65202;SDS011;51788;45.124;38.966;2022-11-14T01:49:24;6.65;;;5.78;;
65202;SDS011;51788;45.124;38.966;2022-11-14T01:52:23;6.15;;;4.50;;
65202;SDS011;51788;45.124;38.966;2022-11-14T01:55:10;8.35;;;5.22;;
65202;SDS011;51788;45.124;38.966;2022-11-14T01:57:55;5.70;;;4.70;;
65202;SDS011;51788;45.124;38.966;2022-11-14T02:00:40;5.93;;;5.32;;
65202;SDS011;51788;45.124;38.966;2022-11-14T02:03:26;5.38;;;4.80;;
65202;SDS011;51788;45.124;38.966;2022-11-14T02:06:12;8.23;;;5.00;;
65202;SDS011;51788;45.124;38.966;2022-11-14T02:09:01;5.45;;;4.95;;
65202;SDS011;51788;45.124;38.966;2022-11-14T02:11:47;5.38;;;4.88;;
65202;SDS011;51788;45.124;38.966;2022-11-14T02:14:33;7.93;;;5.60;;
65202;SDS011;51788;45.124;38.966;2022-11-14T02:17:19;16.13;;;5.03;;
65202;SDS011;51788;45.124;38.966;2022-11-14T02:22:57;6.50;;;5.15;;
65202;SDS011;51788;45.124;38.966;2022-11-14T02:25:42;9.68;;;5.30;;
65202;SDS011;51788;45.124;38.966;2022-11-14T02:28:26;6.63;;;4.40;;
65202;SDS011;51788;45.124;38.966;2022-11-14T02:31:11;4.63;;;4.30;;
65202;SDS011;51788;45.124;38.966;2022-11-14T02:33:56;6.38;;;5.30;;
65202;SDS011;51788;45.124;38.966;2022-11-14T02:36:41;6.10;;;4.80;;
65202;SDS011;51788;45.124;38.966;2022-11-14T02:39:25;6.47;;;4.85;;
65202;SDS011;51788;45.124;38.966;2022-11-14T02:42:10;5.57;;;5.07;;
65202;SDS011;51788;45.124;38.966;2022-11-14T02:44:54;6.80;;;5.60;;
65202;SDS011;51788;45.124;38.966;2022-11-14T02:47:39;7.22;;;4.85;;
65202;SDS011;51788;45.124;38.966;2022-11-14T02:50:23;7.15;;;4.88;;
65202;SDS011;51788;45.124;38.966;2022-11-14T02:53:08;9.75;;;4.90;;
65202;SDS011;51788;45.124;38.966;2022-11-14T02:55:52;4.95;;;4.38;;
65202;SDS011;51788;45.124;38.966;2022-11-14T02:58:37;6.10;;;5.28;;
65202;SDS011;51788;45.124;38.966;2022-11-14T03:01:21;6.15;;;5.15;;
65202;SDS011;51788;45.124;38.966;2022-11-14T03:04:06;8.93;;;5.78;;
65202;SDS011;51788;45.124;38.966;2022-11-14T03:06:51;8.93;;;5.28;;
65202;SDS011;51788;45.124;38.966;2022-11-14T03:09:35;6.78;;;5.65;;
65202;SDS011;51788;45.124;38.966;2022-11-14T03:12:20;6.45;;;4.78;;
65202;SDS011;51788;45.124;38.966;2022-11-14T03:15:05;10.98;;;5.13;;
65202;SDS011;51788;45.124;38.966;2022-11-14T03:17:50;6.72;;;4.93;;
65202;SDS011;51788;45.124;38.966;2022-11-14T03:20:34;6.03;;;5.43;;
65202;SDS011;51788;45.124;38.966;2022-11-14T03:23:19;7.68;;;5.40;;
65202;SDS011;51788;45.124;38.966;2022-11-14T03:26:05;7.70;;;5.80;;
65202;SDS011;51788;45.124;38.966;2022-11-14T03:28:50;6.07;;;5.47;;
65202;SDS011;51788;45.124;38.966;2022-11-14T03:31:34;6.78;;;5.32;;
65202;SDS011;51788;45.124;38.966;2022-11-14T03:34:19;9.50;;;6.03;;
65202;SDS011;51788;45.124;38.966;2022-11-14T03:37:03;6.45;;;5.63;;
65202;SDS011;51788;45.124;38.966;2022-11-14T03:39:48;6.15;;;5.30;;
65202;SDS011;51788;45.124;38.966;2022-11-14T03:42:33;7.63;;;5.07;;
65202;SDS011;51788;45.124;38.966;2022-11-14T03:45:18;7.10;;;5.43;;
65202;SDS011;51788;45.124;38.966;2022-11-14T03:48:03;8.32;;;5.65;;
65202;SDS011;51788;45.124;38.966;2022-11-14T03:50:49;8.77;;;5.82;;
65202;SDS011;51788;45.124;38.966;2022-11-14T03:53:33;7.95;;;5.38;;
65202;SDS011;51788;45.124;38.966;2022-11-14T03:56:18;8.73;;;5.65;;
65202;SDS011;51788;45.124;38.966;2022-11-14T03:59:02;6.00;;;5.40;;
65202;SDS011;51788;45.124;38.966;2022-11-14T04:01:46;6.45;;;4.90;;
65202;SDS011;51788;45.124;38.966;2022-11-14T04:04:31;8.50;;;5.65;;
65202;SDS011;51788;45.124;38.966;2022-11-14T04:07:16;6.38;;;5.70;;
65202;SDS011;51788;45.124;38.966;2022-11-14T04:10:00;7.40;;;5.82;;
65202;SDS011;51788;45.124;38.966;2022-11-14T04:12:48;7.28;;;5.13;;
65202;SDS011;51788;45.124;38.966;2022-11-14T04:15:34;8.82;;;5.60;;
65202;SDS011;51788;45.124;38.966;2022-11-14T04:18:18;5.85;;;5.32;;
65202;SDS011;51788;45.124;38.966;2022-11-14T04:21:02;10.93;;;5.45;;
65202;SDS011;51788;45.124;38.966;2022-11-14T04:23:47;5.45;;;4.90;;
65202;SDS011;51788;45.124;38.966;2022-11-14T04:26:31;6.70;;;5.28;;
65202;SDS011;51788;45.124;38.966;2022-11-14T04:29:16;13.18;;;5.47;;
65202;SDS011;51788;45.124;38.966;2022-11-14T04:32:00;8.98;;;5.25;;
65202;SDS011;51788;45.124;38.966;2022-11-14T04:34:45;6.72;;;4.97;;
65202;SDS011;51788;45.124;38.966;2022-11-14T04:37:29;6.03;;;5.53;;
65202;SDS011;51788;45.124;38.966;2022-11-14T04:40:14;7.32;;;4.97;;
65202;SDS011;51788;45.124;38.966;2022-11-14T04:42:58;20.00;;;5.72;;
65202;SDS011;51788;45.124;38.966;2022-11-14T04:45:42;8.18;;;5.57;;
65202;SDS011;51788;45.124;38.966;2022-11-14T04:48:27;9.35;;;5.38;;
65202;SDS011;51788;45.124;38.966;2022-11-14T04:51:11;6.97;;;4.60;;
65202;SDS011;51788;45.124;38.966;2022-11-14T04:53:56;9.35;;;5.45;;
65202;SDS011;51788;45.124;38.966;2022-11-14T04:56:40;8.20;;;5.70;;
65202;SDS011;51788;45.124;38.966;2022-11-14T04:59:25;9.82;;;5.40;;
65202;SDS011;51788;45.124;38.966;2022-11-14T05:02:09;13.40;;;5.13;;
65202;SDS011;51788;45.124;38.966;2022-11-14T05:04:54;7.22;;;6.00;;
65202;SDS011;51788;45.124;38.966;2022-11-14T05:07:39;25.08;;;5.78;;
65202;SDS011;51788;45.124;38.966;2022-11-14T05:10:24;6.68;;;6.05;;
65202;SDS011;51788;45.124;38.966;2022-11-14T05:13:08;9.15;;;5.90;;
65202;SDS011;51788;45.124;38.966;2022-11-14T05:15:56;8.02;;;5.85;;
65202;SDS011;51788;45.124;38.966;2022-11-14T05:18:42;8.80;;;5.47;;
65202;SDS011;51788;45.124;38.966;2022-11-14T05:21:26;10.35;;;6.65;;
65202;SDS011;51788;45.124;38.966;2022-11-14T05:24:11;6.30;;;5.28;;
65202;SDS011;51788;45.124;38.966;2022-11-14T05:26:57;7.97;;;5.80;;
65202;SDS011;51788;45.124;38.966;2022-11-14T05:29:42;14.65;;;6.85;;
65202;SDS011;51788;45.124;38.966;2022-11-14T05:32:26;13.52;;;6.90;;
65202;SDS011;51788;45.124;38.966;2022-11-14T05:35:10;7.85;;;6.47;;
65202;SDS011;51788;45.124;38.966;2022-11-14T05:37:55;10.45;;;6.13;;
65202;SDS011;51788;45.124;38.966;2022-11-14T05:40:39;8.90;;;6.57;;
65202;SDS011;51788;45.124;38.966;2022-11-14T05:43:24;30.08;;;7.93;;
65202;SDS011;51788;45.124;38.966;2022-11-14T05:46:12;27.80;;;6.30;;
65202;SDS011;51788;45.124;38.966;2022-11-14T05:48:57;15.52;;;7.63;;
65202;SDS011;51788;45.124;38.966;2022-11-14T05:51:42;13.80;;;7.40;;
65202;SDS011;51788;45.124;38.966;2022-11-14T05:54:26;10.88;;;7.18;;
65202;SDS011;51788;45.124;38.966;2022-11-14T05:57:11;21.67;;;7.72;;
65202;SDS011;51788;45.124;38.966;2022-11-14T05:59:55;20.02;;;8.20;;
65202;SDS011;51788;45.124;38.966;2022-11-14T06:02:40;17.58;;;8.20;;
65202;SDS011;51788;45.124;38.966;2022-11-14T06:05:25;23.02;;;8.10;;
65202;SDS011;51788;45.124;38.966;2022-11-14T06:08:09;7.53;;;6.82;;
65202;SDS011;51788;45.124;38.966;2022-11-14T06:10:53;9.80;;;6.63;;
65202;SDS011;51788;45.124;38.966;2022-11-14T06:13:38;10.00;;;6.05;;
65202;SDS011;51788;45.124;38.966;2022-11-14T06:16:23;19.23;;;6.38;;
65202;SDS011;51788;45.124;38.966;2022-11-14T06:19:07;9.90;;;6.55;;
65202;SDS011;51788;45.124;38.966;2022-11-14T06:21:52;17.85;;;6.00;;
65202;SDS011;51788;45.124;38.966;2022-11-14T06:24:36;8.82;;;6.75;;
65202;SDS011;51788;45.124;38.966;2022-11-14T06:27:21;8.82;;;6.47;;
65202;SDS011;51788;45.124;38.966;2022-11-14T06:30:05;7.32;;;6.57;;
65202;SDS011;51788;45.124;38.966;2022-11-14T06:32:55;15.32;;;6.65;;
65202;SDS011;51788;45.124;38.966;2022-11-14T06:35:40;10.85;;;6.70;;
65202;SDS011;51788;45.124;38.966;2022-11-14T06:38:25;12.15;;;7.10;;
65202;SDS011;51788;45.124;38.966;2022-11-14T06:41:14;17.10;;;6.65;;
65202;SDS011;51788;45.124;38.966;2022-11-14T06:43:59;12.68;;;7.63;;
65202;SDS011;51788;45.124;38.966;2022-11-14T06:46:44;8.10;;;6.90;;
65202;SDS011;51788;45.124;38.966;2022-11-14T06:49:28;21.63;;;8.43;;
65202;SDS011;51788;45.124;38.966;2022-11-14T06:52:13;15.50;;;7.72;;
65202;SDS011;51788;45.124;38.966;2022-11-14T06:54:57;8.85;;;6.88;;
65202;SDS011;51788;45.124;38.966;2022-11-14T06:57:44;9.60;;;7.38;;
65202;SDS011;51788;45.124;38.966;2022-11-14T07:00:28;10.27;;;8.38;;
65202;SDS011;51788;45.124;38.966;2022-11-14T07:03:13;8.02;;;7.15;;
65202;SDS011;51788;45.124;38.966;2022-11-14T07:06:01;8.10;;;7.30;;
65202;SDS011;51788;45.124;38.966;2022-11-14T07:08:46;9.75;;;6.90;;
65202;SDS011;51788;45.124;38.966;2022-11-14T07:11:30;12.45;;;7.85;;
65202;SDS011;51788;45.124;38.966;2022-11-14T07:14:15;13.88;;;8.23;;
65202;SDS011;51788;45.124;38.966;2022-11-14T07:17:00;10.68;;;8.27;;
65202;SDS011;51788;45.124;38.966;2022-11-14T07:19:44;30.02;;;9.07;;
65202;SDS011;51788;45.124;38.966;2022-11-14T07:22:29;10.38;;;8.85;;
65202;SDS011;51788;45.124;38.966;2022-11-14T07:25:13;12.30;;;8.07;;
65202;SDS011;51788;45.124;38.966;2022-11-14T07:27:58;16.85;;;8.40;;
65202;SDS011;51788;45.124;38.966;2022-11-14T07:30:42;20.52;;;8.15;;
65202;SDS011;51788;45.124;38.966;2022-11-14T07:33:27;13.30;;;8.30;;
65202;SDS011;51788;45.124;38.966;2022-11-14T07:36:13;10.73;;;7.75;;
65202;SDS011;51788;45.124;38.966;2022-11-14T07:38:58;10.55;;;7.43;;
65202;SDS011;51788;45.124;38.966;2022-11-14T07:41:43;10.07;;;8.30;;
65202;SDS011;51788;45.124;38.966;2022-11-14T07:44:27;16.63;;;8.88;;
65202;SDS011;51788;45.124;38.966;2022-11-14T07:47:12;15.18;;;10.40;;
65202;SDS011;51788;45.124;38.966;2022-11-14T07:49:56;12.10;;;8.88;;
65202;SDS011;51788;45.124;38.966;2022-11-14T07:52:41;10.15;;;9.13;;
65202;SDS011;51788;45.124;38.966;2022-11-14T07:55:25;12.40;;;7.72;;
65202;SDS011;51788;45.124;38.966;2022-11-14T07:58:10;15.07;;;8.98;;
65202;SDS011;51788;45.124;38.966;2022-11-14T08:00:54;14.63;;;8.77;;
65202;SDS011;51788;45.124;38.966;2022-11-14T08:03:39;12.40;;;8.23;;
65202;SDS011;51788;45.124;38.966;2022-11-14T08:06:24;10.90;;;8.10;;
65202;SDS011;51788;45.124;38.966;2022-11-14T08:09:08;8.27;;;5.63;;
65202;SDS011;51788;45.124;38.966;2022-11-14T08:11:53;12.75;;;8.27;;
65202;SDS011;51788;45.124;38.966;2022-11-14T08:14:38;9.23;;;6.68;;
65202;SDS011;51788;45.124;38.966;2022-11-14T08:17:22;27.88;;;7.95;;
65202;SDS011;51788;45.124;38.966;2022-11-14T08:20:07;9.75;;;7.55;;
65202;SDS011;51788;45.124;38.966;2022-11-14T08:22:53;14.73;;;10.23;;
65202;SDS011;51788;45.124;38.966;2022-11-14T08:25:38;9.80;;;6.00;;
65202;SDS011;51788;45.124;38.966;2022-11-14T08:28:23;10.05;;;9.00;;
65202;SDS011;51788;45.124;38.966;2022-11-14T08:31:07;16.10;;;11.30;;
65202;SDS011;51788;45.124;38.966;2022-11-14T08:33:52;12.00;;;8.15;;
65202;SDS011;51788;45.124;38.966;2022-11-14T08:36:37;12.93;;;9.27;;
65202;SDS011;51788;45.124;38.966;2022-11-14T08:39:21;8.43;;;7.07;;
65202;SDS011;51788;45.124;38.966;2022-11-14T08:42:06;19.90;;;11.63;;
65202;SDS011;51788;45.124;38.966;2022-11-14T08:44:50;9.75;;;8.45;;
65202;SDS011;51788;45.124;38.966;2022-11-14T08:47:35;12.98;;;9.30;;
65202;SDS011;51788;45.124;38.966;2022-11-14T08:50:20;12.27;;;9.85;;
65202;SDS011;51788;45.124;38.966;2022-11-14T08:53:04;14.98;;;7.65;;
65202;SDS011;51788;45.124;38.966;2022-11-14T08:55:49;16.98;;;10.40;;
65202;SDS011;51788;45.124;38.966;2022-11-14T08:58:33;17.85;;;11.82;;
65202;SDS011;51788;45.124;38.966;2022-11-14T09:01:18;11.32;;;9.20;;
65202;SDS011;51788;45.124;38.966;2022-11-14T09:04:02;16.13;;;10.15;;
65202;SDS011;51788;45.124;38.966;2022-11-14T09:06:47;17.20;;;9.90;;
65202;SDS011;51788;45.124;38.966;2022-11-14T09:09:31;13.55;;;8.45;;
65202;SDS011;51788;45.124;38.966;2022-11-14T09:12:16;10.70;;;7.45;;
65202;SDS011;51788;45.124;38.966;2022-11-14T09:15:00;15.02;;;9.23;;
65202;SDS011;51788;45.124;38.966;2022-11-14T09:17:45;12.00;;;9.05;;
65202;SDS011;51788;45.124;38.966;2022-11-14T09:20:29;10.68;;;7.82;;
65202;SDS011;51788;45.124;38.966;2022-11-14T09:23:14;14.13;;;10.55;;
65202;SDS011;51788;45.124;38.966;2022-11-14T09:26:02;13.15;;;8.57;;
65202;SDS011;51788;45.124;38.966;2022-11-14T09:28:50;30.25;;;10.75;;
65202;SDS011;51788;45.124;38.966;2022-11-14T09:31:35;10.40;;;8.00;;
65202;SDS011;51788;45.124;38.966;2022-11-14T09:34:19;10.52;;;8.52;;
65202;SDS011;51788;45.124;38.966;2022-11-14T09:37:04;8.35;;;6.32;;
65202;SDS011;51788;45.124;38.966;2022-11-14T09:39:48;13.90;;;6.88;;
65202;SDS011;51788;45.124;38.966;2022-11-14T09:45:43;8.43;;;6.25;;
65202;SDS011;51788;45.124;38.966;2022-11-14T09:48:33;8.70;;;6.32;;
65202;SDS011;51788;45.124;38.966;2022-11-14T09:51:22;18.63;;;9.77;;
65202;SDS011;51788;45.124;38.966;2022-11-14T09:54:25;11.18;;;9.07;;
65202;SDS011;51788;45.124;38.966;2022-11-14T09:57:16;7.00;;;6.30;;
65202;SDS011;51788;45.124;38.966;2022-11-14T10:00:11;8.07;;;7.38;;
65202;SDS011;51788;45.124;38.966;2022-11-14T10:03:22;8.45;;;6.88;;
65202;SDS011;51788;45.124;38.966;2022-11-14T10:09:27;8.68;;;5.47;;
65202;SDS011;51788;45.124;38.966;2022-11-14T10:12:21;6.50;;;6.00;;
65202;SDS011;51788;45.124;38.966;2022-11-14T10:15:14;19.30;;;8.15;;
65202;SDS011;51788;45.124;38.966;2022-11-14T10:18:08;17.27;;;8.57;;
65202;SDS011;51788;45.124;38.966;2022-11-14T10:21:13;8.65;;;7.60;;
65202;SDS011;51788;45.124;38.966;2022-11-14T10:37:28;8.95;;;6.40;;
65202;SDS011;51788;45.124;38.966;2022-11-14T10:43:22;7.55;;;6.68;;
65202;SDS011;51788;45.124;38.966;2022-11-14T10:46:16;9.70;;;7.38;;
65202;SDS011;51788;45.124;38.966;2022-11-14T10:49:21;8.32;;;7.43;;
65202;SDS011;51788;45.124;38.966;2022-11-14T10:52:11;13.10;;;7.00;;
65202;SDS011;51788;45.124;38.966;2022-11-14T10:54:59;6.83;;;5.63;;
65202;SDS011;51788;45.124;38.966;2022-11-14T10:57:49;11.27;;;5.95;;
65202;SDS011;51788;45.124;38.966;2022-11-14T11:00:33;13.82;;;6.28;;
65202;SDS011;51788;45.124;38.966;2022-11-14T11:03:18;7.82;;;6.35;;
65202;SDS011;51788;45.124;38.966;2022-11-14T11:06:02;6.25;;;5.40;;
65202;SDS011;51788;45.124;38.966;2022-11-14T11:08:47;15.90;;;7.68;;
65202;SDS011;51788;45.124;38.966;2022-11-14T11:11:51;15.10;;;7.53;;
65202;SDS011;51788;45.124;38.966;2022-11-14T11:14:38;13.50;;;8.90;;
65202;SDS011;51788;45.124;38.966;2022-11-14T11:17:22;11.73;;;6.40;;
65202;SDS011;51788;45.124;38.966;2022-11-14T11:20:27;9.40;;;6.75;;
65202;SDS011;51788;45.124;38.966;2022-11-14T11:23:24;6.65;;;5.40;;
65202;SDS011;51788;45.124;38.966;2022-11-14T11:26:17;15.93;;;8.15;;
65202;SDS011;51788;45.124;38.966;2022-11-14T11:31:55;10.68;;;5.78;;
65202;SDS011;51788;45.124;38.966;2022-11-14T11:34:41;8.25;;;6.43;;
65202;SDS011;51788;45.124;38.966;2022-11-14T11:37:27;11.57;;;6.85;;
65202;SDS011;51788;45.124;38.966;2022-11-14T11:40:17;8.35;;;6.75;;
65202;SDS011;51788;45.124;38.966;2022-11-14T11:43:08;13.95;;;8.68;;
65202;SDS011;51788;45.124;38.966;2022-11-14T11:46:00;12.98;;;10.02;;
65202;SDS011;51788;45.124;38.966;2022-11-14T11:48:50;16.13;;;6.63;;
65202;SDS011;51788;45.124;38.966;2022-11-14T11:51:44;6.90;;;6.20;;
65202;SDS011;51788;45.124;38.966;2022-11-14T11:54:30;12.55;;;6.60;;
65202;SDS011;51788;45.124;38.966;2022-11-14T11:57:29;5.75;;;4.93;;
65202;SDS011;51788;45.124;38.966;2022-11-14T12:00:19;9.60;;;5.95;;
65202;SDS011;51788;45.124;38.966;2022-11-14T12:03:08;15.90;;;8.27;;
65202;SDS011;51788;45.124;38.966;2022-11-14T12:09:19;11.40;;;8.10;;
65202;SDS011;51788;45.124;38.966;2022-11-14T12:15:17;9.63;;;6.72;;
65202;SDS011;51788;45.124;38.966;2022-11-14T12:21:20;11.43;;;7.07;;
65202;SDS011;51788;45.124;38.966;2022-11-14T12:27:27;25.30;;;5.68;;
65202;SDS011;51788;45.124;38.966;2022-11-14T12:30:35;12.80;;;6.80;;
65202;SDS011;51788;45.124;38.966;2022-11-14T12:33:26;10.18;;;7.82;;
65202;SDS011;51788;45.124;38.966;2022-11-14T12:36:15;11.30;;;7.78;;
65202;SDS011;51788;45.124;38.966;2022-11-14T12:39:00;10.93;;;7.57;;
65202;SDS011;51788;45.124;38.966;2022-11-14T12:41:44;10.70;;;6.43;;
65202;SDS011;51788;45.124;38.966;2022-11-14T12:47:17;7.07;;;6.05;;
65202;SDS011;51788;45.124;38.966;2022-11-14T12:50:04;6.88;;;5.60;;
65202;SDS011;51788;45.124;38.966;2022-11-14T13:05:53;17.15;;;7.45;;
65202;SDS011;51788;45.124;38.966;2022-11-14T13:08:46;14.90;;;8.70;;
65202;SDS011;51788;45.124;38.966;2022-11-14T13:11:42;18.63;;;9.43;;
65202;SDS011;51788;45.124;38.966;2022-11-14T13:14:48;15.98;;;8.07;;
65202;SDS011;51788;45.124;38.966;2022-11-14T13:18:01;11.00;;;7.68;;
65202;SDS011;51788;45.124;38.966;2022-11-14T13:21:15;20.27;;;10.55;;
65202;SDS011;51788;45.124;38.966;2022-11-14T13:27:46;22.90;;;13.05;;
65202;SDS011;51788;45.124;38.966;2022-11-14T13:33:54;24.33;;;13.02;;
65202;SDS011;51788;45.124;38.966;2022-11-14T13:45:45;14.13;;;8.68;;
65202;SDS011;51788;45.124;38.966;2022-11-14T13:48:59;16.27;;;8.45;;
65202;SDS011;51788;45.124;38.966;2022-11-14T13:52:06;29.02;;;8.73;;
65202;SDS011;51788;45.124;38.966;2022-11-14T13:54:54;25.98;;;10.70;;
65202;SDS011;51788;45.124;38.966;2022-11-14T14:00:28;29.63;;;11.85;;
65202;SDS011;51788;45.124;38.966;2022-11-14T14:03:35;36.95;;;17.08;;
65202;SDS011;51788;45.124;38.966;2022-11-14T14:09:50;26.23;;;15.38;;
65202;SDS011;51788;45.124;38.966;2022-11-14T14:12:57;30.35;;;14.82;;
65202;SDS011;51788;45.124;38.966;2022-11-14T14:16:00;30.30;;;13.98;;
65202;SDS011;51788;45.124;38.966;2022-11-14T14:31:32;34.25;;;12.57;;
65202;SDS011;51788;45.124;38.966;2022-11-14T14:34:17;38.85;;;14.02;;
65202;SDS011;51788;45.124;38.966;2022-11-14T14:37:22;27.17;;;12.48;;
65202;SDS011;51788;45.124;38.966;2022-11-14T14:40:21;28.25;;;11.77;;
65202;SDS011;51788;45.124;38.966;2022-11-14T14:43:11;37.55;;;13.27;;
65202;SDS011;51788;45.124;38.966;2022-11-14T14:46:05;36.60;;;12.25;;
65202;SDS011;51788;45.124;38.966;2022-11-14T14:48:50;45.00;;;12.52;;
65202;SDS011;51788;45.124;38.966;2022-11-14T14:51:35;43.45;;;13.48;;
65202;SDS011;51788;45.124;38.966;2022-11-14T14:54:22;37.83;;;14.15;;
65202;SDS011;51788;45.124;38.966;2022-11-14T14:57:18;54.30;;;15.32;;
65202;SDS011;51788;45.124;38.966;2022-11-14T15:00:07;43.70;;;15.57;;
65202;SDS011;51788;45.124;38.966;2022-11-14T15:03:00;70.95;;;15.80;;
65202;SDS011;51788;45.124;38.966;2022-11-14T15:05:46;50.47;;;14.90;;
65202;SDS011;51788;45.124;38.966;2022-11-14T15:08:31;37.42;;;12.75;;
65202;SDS011;51788;45.124;38.966;2022-11-14T15:11:20;23.00;;;13.27;;
65202;SDS011;51788;45.124;38.966;2022-11-14T15:14:05;28.80;;;13.52;;
65202;SDS011;51788;45.124;38.966;2022-11-14T15:16:53;37.58;;;12.77;;
65202;SDS011;51788;45.124;38.966;2022-11-14T15:19:39;37.08;;;13.27;;
65202;SDS011;51788;45.124;38.966;2022-11-14T15:22:26;32.85;;;14.57;;
65202;SDS011;51788;45.124;38.966;2022-11-14T15:27:56;38.17;;;14.15;;
65202;SDS011;51788;45.124;38.966;2022-11-14T15:30:58;40.35;;;14.00;;
65202;SDS011;51788;45.124;38.966;2022-11-14T15:33:45;27.42;;;13.48;;
65202;SDS011;51788;45.124;38.966;2022-11-14T15:40:17;31.10;;;14.50;;
65202;SDS011;51788;45.124;38.966;2022-11-14T15:49:25;32.28;;;12.75;;
65202;SDS011;51788;45.124;38.966;2022-11-14T15:52:17;32.47;;;13.95;;
65202;SDS011;51788;45.124;38.966;2022-11-14T15:55:11;22.88;;;11.20;;
65202;SDS011;51788;45.124;38.966;2022-11-14T15:57:59;28.05;;;11.68;;
65202;SDS011;51788;45.124;38.966;2022-11-14T16:00:48;31.35;;;13.20;;
65202;SDS011;51788;45.124;38.966;2022-11-14T16:03:34;32.25;;;13.95;;
65202;SDS011;51788;45.124;38.966;2022-11-14T16:06:19;49.97;;;15.10;;
65202;SDS011;51788;45.124;38.966;2022-11-14T16:09:03;49.85;;;16.67;;
65202;SDS011;51788;45.124;38.966;2022-11-14T16:11:48;45.63;;;18.02;;
65202;SDS011;51788;45.124;38.966;2022-11-14T16:14:32;58.83;;;19.30;;
65202;SDS011;51788;45.124;38.966;2022-11-14T16:17:17;56.58;;;22.02;;
65202;SDS011;51788;45.124;38.966;2022-11-14T16:20:05;78.13;;;25.17;;
65202;SDS011;51788;45.124;38.966;2022-11-14T16:22:53;67.75;;;23.33;;
65202;SDS011;51788;45.124;38.966;2022-11-14T16:25:39;57.30;;;21.88;;
65202;SDS011;51788;45.124;38.966;2022-11-14T16:28:23;56.30;;;22.10;;
65202;SDS011;51788;45.124;38.966;2022-11-14T16:31:11;31.60;;;16.02;;
65202;SDS011;51788;45.124;38.966;2022-11-14T16:33:56;47.83;;;18.15;;
65202;SDS011;51788;45.124;38.966;2022-11-14T16:36:41;23.70;;;11.88;;
65202;SDS011;51788;45.124;38.966;2022-11-14T16:39:28;47.10;;;15.27;;
65202;SDS011;51788;45.124;38.966;2022-11-14T16:42:13;44.30;;;17.50;;
65202;SDS011;51788;45.124;38.966;2022-11-14T16:44:58;41.15;;;16.05;;
65202;SDS011;51788;45.124;38.966;2022-11-14T16:47:44;34.17;;;16.15;;
65202;SDS011;51788;45.124;38.966;2022-11-14T16:50:28;44.53;;;16.50;;
65202;SDS011;51788;45.124;38.966;2022-11-14T16:53:13;36.22;;;14.85;;
65202;SDS011;51788;45.124;38.966;2022-11-14T16:55:57;34.35;;;15.63;;
65202;SDS011;51788;45.124;38.966;2022-11-14T16:58:42;33.22;;;14.68;;
65202;SDS011;51788;45.124;38.966;2022-11-14T17:01:26;40.17;;;15.95;;
65202;SDS011;51788;45.124;38.966;2022-11-14T17:04:11;36.97;;;14.60;;
65202;SDS011;51788;45.124;38.966;2022-11-14T17:06:55;35.00;;;14.27;;
65202;SDS011;51788;45.124;38.966;2022-11-14T17:09:40;44.60;;;14.38;;
65202;SDS011;51788;45.124;38.966;2022-11-14T17:12:24;34.20;;;13.65;;
65202;SDS011;51788;45.124;38.966;2022-11-14T17:15:09;31.83;;;13.48;;
65202;SDS011;51788;45.124;38.966;2022-11-14T17:17:53;18.90;;;10.40;;
65202;SDS011;51788;45.124;38.966;2022-11-14T17:20:39;30.42;;;11.88;;
65202;SDS011;51788;45.124;38.966;2022-11-14T17:23:23;31.50;;;12.13;;
65202;SDS011;51788;45.124;38.966;2022-11-14T17:26:09;36.50;;;12.88;;
65202;SDS011;51788;45.124;38.966;2022-11-14T17:28:55;33.50;;;11.90;;
65202;SDS011;51788;45.124;38.966;2022-11-14T17:31:40;22.27;;;9.35;;
65202;SDS011;51788;45.124;38.966;2022-11-14T17:34:25;29.45;;;13.57;;
65202;SDS011;51788;45.124;38.966;2022-11-14T17:37:10;25.98;;;12.10;;
65202;SDS011;51788;45.124;38.966;2022-11-14T17:39:54;33.95;;;13.63;;
65202;SDS011;51788;45.124;38.966;2022-11-14T17:42:38;35.70;;;12.90;;
65202;SDS011;51788;45.124;38.966;2022-11-14T17:45:23;45.97;;;12.77;;
65202;SDS011;51788;45.124;38.966;2022-11-14T17:48:07;32.65;;;13.77;;
65202;SDS011;51788;45.124;38.966;2022-11-14T17:50:52;32.83;;;14.43;;
65202;SDS011;51788;45.124;38.966;2022-11-14T17:53:37;28.77;;;14.43;;
65202;SDS011;51788;45.124;38.966;2022-11-14T17:56:22;32.75;;;16.02;;
65202;SDS011;51788;45.124;38.966;2022-11-14T17:59:08;34.58;;;13.90;;
65202;SDS011;51788;45.124;38.966;2022-11-14T18:01:52;33.55;;;14.25;;
65202;SDS011;51788;45.124;38.966;2022-11-14T18:04:38;29.73;;;14.35;;